• Join FlightAware (Why Join?)
  • Login
  • US Flag 
02:43PM EDT


 

Airport Tracker/Info


-or-


 

Live Flight TrackerFlight Track Log ✈ N960DL ✈ 12-Jun-2013 ✈ KATL - KPWM

Flight Track Log - Related Links

Times and Time Zones

All times are in EDT time to prevent confusion due to time zone crossing. See the N960DL flight status page for this flight to view local times or setup timezone preferences in your user account.

Time Position Orientation Groundspeed Altitude Reporting Facility
EDT Latitude Longitude Course Direction KTS MPH feet Rate Location/Type
08:30AM 33.6333 -84.4500 53° Northeast 148 170 2,200  Level Atlanta TRACON
08:31AM 33.6167 -84.5167 253° West 236 272 3,700 2,340 Climbing Atlanta TRACON
08:32AM 33.5833 -84.5833 239° Southwest 287 330 6,700 2,160 Climbing Atlanta TRACON
08:34AM 33.4531 -84.5044 153° Southeast 261 300 10,600 1,800 Climbing Atlanta Center
08:35AM 33.8777 -83.7686 48° Northeast  Level FlightAware Approximate
08:35AM 33.4578 -84.3775 87° East 319 367 12,400  Level Atlanta Center
08:36AM 33.9542 -83.6565 53° Northeast  Level FlightAware Approximate
08:36AM 33.4831 -84.2506 77° East 363 418 15,300  Level Atlanta Center
08:37AM 33.5856 -84.1883 27° Northeast 383 441 17,900 2,400 Climbing Atlanta Center
08:38AM 33.6878 -84.1236 28° Northeast 394 453 20,200 1,980 Climbing Atlanta Center
08:39AM 33.7714 -84.0189 46° Northeast 430 495 21,900 1,680 Climbing Atlanta Center
08:40AM 33.8381 -83.8864 59° Northeast 445 512 23,600 1,800 Climbing Atlanta Center
08:41AM 33.9067 -83.7536 58° Northeast 467 537 25,500 2,160 Climbing Atlanta Center
08:42AM 33.9814 -83.6281 54° Northeast 467 537 28,000 2,100 Climbing Atlanta Center
08:43AM 34.0603 -83.5047 52° Northeast 467 537 29,800 1,500 Climbing Atlanta Center
08:44AM 34.1328 -83.3864 53° Northeast 449 517 31,000 600 Climbing Atlanta Center
08:45AM 34.2156 -83.2550 53° Northeast 449 517 31,000 540 Level Atlanta Center
08:46AM 34.2897 -83.1336 53° Northeast 444 511 32,100 1,260 Climbing Atlanta Center
08:47AM 34.3619 -83.0172 53° Northeast 439 505 33,600 1,200 Climbing Atlanta Center
08:48AM 34.4381 -82.9028 51° Northeast 434 499 34,600 660 Climbing Atlanta Center
08:49AM 34.5058 -82.7836 55° Northeast 429 494 35,000 180 Climbing Atlanta Center
08:50AM 34.5839 -82.6714 50° Northeast 439 505 35,000  Level Atlanta Center
08:51AM 34.6661 -82.5714 45° Northeast 427 491 35,000  Level Atlanta Center
08:52AM 34.7461 -82.4614 48° Northeast 422 486 35,000  Level Atlanta Center
08:53AM 34.8261 -82.3536 48° Northeast 422 486 35,000  Level Atlanta Center
08:54AM 34.9081 -82.2431 48° Northeast 422 486 35,000  Level Atlanta Center
08:55AM 34.9839 -82.1475 46° Northeast 422 486 35,000  Level Atlanta Center
08:56AM 35.0739 -82.0289 47° Northeast 428 493 35,000  Level Atlanta Center
08:57AM 35.1533 -81.9203 48° Northeast 423 487 35,000 480 Level Atlanta Center
08:58AM 35.2350 -81.8139 47° Northeast 423 487 36,000 840 Climbing Atlanta Center
08:59AM 35.3164 -81.7097 46° Northeast 418 481 36,700 480 Climbing Atlanta Center
09:00AM 35.3936 -81.6058 48° Northeast 418 481 37,000 120 Climbing Atlanta Center
09:01AM 35.4731 -81.5014 47° Northeast 412 474 37,000  Level Atlanta Center
09:02AM 35.5500 -81.3994 47° Northeast 412 474 37,000  Level Atlanta Center
09:03AM 35.6311 -81.2869 48° Northeast 417 480 37,000  Level Atlanta Center
09:04AM 35.7078 -81.1719 51° Northeast 422 486 37,000  Level Atlanta Center
09:05AM 35.7931 -81.0717 44° Northeast 436 502 37,000  Level Atlanta Center
09:06AM 35.8717 -80.9636 48° Northeast 418 481 37,000  Level Atlanta Center
09:07AM 35.9503 -80.8556 48° Northeast 412 474 37,000  Level Atlanta Center
09:08AM 36.0286 -80.7472 48° Northeast 417 480 37,000  Level Atlanta Center
09:09AM 36.1072 -80.6386 48° Northeast 417 480 37,000  Level Atlanta Center
09:10AM 36.1833 -80.5300 49° Northeast 423 487 37,000  Level Atlanta Center
09:12AM 36.3136 -80.3558 47° Northeast 429 494 37,000  Level Washington Center
09:13AM 36.3889 -80.2494 49° Northeast 416 479 37,000  Level Washington Center
09:14AM 36.4681 -80.1403 48° Northeast 416 479 37,000  Level Washington Center
09:15AM 36.5428 -80.0386 48° Northeast 430 495 37,000  Level Washington Center
09:16AM 36.6358 -79.9508 37° Northeast 423 487 37,000  Level Washington Center
09:17AM 36.7250 -79.8547 41° Northeast 416 479 37,000  Level Washington Center
09:18AM 36.8039 -79.7397 49° Northeast 427 491 37,000  Level Washington Center
09:19AM 36.8939 -79.6122 49° Northeast 436 502 37,000  Level Washington Center
09:20AM 36.9728 -79.4994 49° Northeast 436 502 37,000  Level Washington Center
09:21AM 37.0536 -79.3836 49° Northeast 436 502 37,000  Level Washington Center
09:22AM 37.1281 -79.2781 48° Northeast 441 507 37,000  Level Washington Center
09:23AM 37.2067 -79.1617 50° Northeast 441 507 37,000  Level Washington Center
09:24AM 37.2958 -79.0353 48° Northeast 441 507 37,000  Level Washington Center
09:25AM 37.3764 -78.9189 49° Northeast 441 507 37,000  Level Washington Center
09:26AM 37.4544 -78.8072 49° Northeast 435 501 37,000  Level Washington Center
09:27AM 37.5261 -78.7028 49° Northeast 435 501 37,000  Level Washington Center
09:28AM 37.6019 -78.5881 50° Northeast 435 501 37,000  Level Washington Center
09:29AM 37.6797 -78.4756 49° Northeast 430 495 37,000  Level Washington Center
09:30AM 37.7575 -78.3603 50° Northeast 430 495 37,000  Level Washington Center
09:31AM 37.8439 -78.2347 49° Northeast 430 495 37,000  Level Washington Center
09:32AM 37.9086 -78.1369 50° Northeast 424 488 37,000  Level Washington Center
09:33AM 37.9861 -78.0208 50° Northeast 418 481 37,000  Level Washington Center
09:34AM 38.0697 -77.8969 49° Northeast 423 487 37,000  Level Washington Center
09:35AM 38.1450 -77.7831 50° Northeast 423 487 37,000  Level Washington Center
09:36AM 38.2242 -77.6692 48° Northeast 428 493 37,000  Level Washington Center
09:37AM 38.2989 -77.5575 50° Northeast 428 493 37,000  Level Washington Center
09:38AM 38.3694 -77.4508 50° Northeast 428 493 37,000  Level Washington Center
09:39AM 38.4464 -77.3333 50° Northeast 428 493 37,000  Level Washington Center
09:40AM 38.5250 -77.2131 50° Northeast 428 493 37,000  Level Washington Center
09:41AM 38.6017 -77.0925 51° Northeast 428 493 37,000  Level Washington Center
09:42AM 38.6783 -76.9692 51° Northeast 433 498 37,000  Level Washington Center
09:43AM 38.7547 -76.8481 51° Northeast 438 504 37,000  Level Washington Center
09:44AM 38.8308 -76.7269 51° Northeast 438 504 37,000  Level Washington Center
09:45AM 38.9050 -76.6025 53° Northeast 438 504 37,000  Level Washington Center
09:46AM 38.9808 -76.4836 51° Northeast 438 504 37,000  Level Washington Center
09:47AM 39.0547 -76.3642 51° Northeast 433 498 37,000  Level Washington Center
09:48AM 39.1306 -76.2417 51° Northeast 433 498 37,000  Level Washington Center
09:49AM 39.2103 -76.1219 49° Northeast 438 504 37,000  Level Washington Center
09:50AM 39.2858 -75.9964 52° Northeast 443 510 37,000  Level Washington Center
09:51AM 39.3653 -75.8733 50° Northeast 443 510 37,000 -60 Level Washington Center
09:52AM 39.4406 -75.7500 52° Northeast 443 510 36,900  Descending Washington Center
09:54AM 39.5933 -75.5017 51° Northeast 440 506 37,000  Climbing New York Center
09:55AM 39.6714 -75.3747 51° Northeast 446 513 36,900  Descending New York Center
09:56AM 39.7469 -75.2528 51° Northeast 441 507 37,000  Climbing New York Center
09:57AM 39.8272 -75.1147 53° Northeast 441 507 37,000  Level New York Center
09:58AM 39.9006 -74.9867 53° Northeast 441 507 37,000  Level New York Center
09:59AM 39.9842 -74.8617 49° Northeast 450 518 37,000  Level New York Center
10:00AM 40.0508 -74.7408 54° Northeast 433 498 37,000  Level New York Center
10:02AM 40.2072 -74.4889 51° Northeast 436 502 37,000  Level New York Center
10:04AM 40.4058 -74.2714 40° Northeast 428 493 37,000  Level Boston Center
10:05AM 40.5158 -74.1517 40° Northeast 428 493 37,000  Level Boston Center
10:06AM 40.6069 -74.0503 40° Northeast 428 493 37,000  Level Boston Center
10:07AM 40.6881 -73.9264 49° Northeast 428 493 37,000  Level Boston Center
10:08AM 40.7644 -73.8019 51° Northeast 433 498 37,000  Level Boston Center
10:09AM 40.8392 -73.6664 54° Northeast 439 505 37,000  Level Boston Center
10:10AM 40.9175 -73.5361 51° Northeast 446 513 37,000  Level Boston Center
10:11AM 40.9958 -73.4025 52° Northeast 452 520 37,000  Level Boston Center
10:12AM 41.0697 -73.2742 53° Northeast 452 520 37,000  Level Boston Center
10:13AM 41.1478 -73.1375 53° Northeast 452 520 37,000  Level Boston Center
10:14AM 41.2172 -72.9975 57° Northeast 457 526 37,000  Level Boston Center
10:15AM 41.2847 -72.8517 58° Northeast 457 526 37,000  Level Boston Center
10:16AM 41.3414 -72.7167 61° Northeast 463 533 37,000  Level Boston Center
10:17AM 41.4103 -72.5536 61° Northeast 458 527 37,000  Level Boston Center
10:18AM 41.4689 -72.4208 59° Northeast 458 527 37,000  Level Boston Center
10:19AM 41.5375 -72.2569 61° Northeast 458 527 37,000 -300 Level Boston Center
10:20AM 41.6039 -72.1097 59° Northeast 458 527 36,400 -600 Descending Boston Center
10:21AM 41.6678 -71.9594 60° Northeast 458 527 35,800 -420 Descending Boston Center
10:22AM 41.7297 -71.8114 61° Northeast 458 527 35,600 -1,140 Descending Boston Center
10:23AM 41.7933 -71.6606 60° Northeast 458 527 33,600 -1,740 Descending Boston Center
10:24AM 41.8550 -71.5286 58° Northeast 458 527 32,200 -1,620 Descending Boston Center
10:25AM 41.9142 -71.3828 61° Northeast 458 527 30,400 -1,500 Descending Boston Center
10:26AM 41.9750 -71.2394 60° Northeast 447 514 29,200 -1,320 Descending Boston Center
10:27AM 42.0381 -71.0956 59° Northeast 442 509 27,800 -1,140 Descending Boston Center
10:28AM 42.1350 -70.9983 37° Northeast 433 498 27,000 -900 Descending Boston Center
10:29AM 42.2381 -70.9203 29° Northeast 427 491 26,000 -1,080 Descending Boston Center
10:30AM 42.3475 -70.8361 30° Northeast 415 478 24,900 -1,020 Descending Boston Center
10:31AM 42.4339 -70.7664 31° Northeast 402 463 24,000 -900 Descending Boston Center
10:32AM 42.5394 -70.7100 21° North 397 457 23,200 -960 Descending Boston Center
10:33AM 42.6572 -70.6475 21° North 435 501 22,100 -1,500 Descending Boston Center
10:34AM 42.7564 -70.5908 23° Northeast 421 484 20,200 -2,220 Descending Boston Center
10:35AM 42.8533 -70.5283 25° Northeast 384 442 17,700 -2,340 Descending Boston Center
10:36AM 42.9503 -70.4686 24° Northeast 379 436 15,600 -1,920 Descending Boston Center
10:38AM 43.0408 -70.4061 27° Northeast 370 426 13,500 -1,920 Descending Boston Center
10:39AM 43.1331 -70.3261 32° Northeast 356 410 11,400 -1,500 Descending Boston Center
10:40AM 43.2194 -70.2519 32° Northeast 337 388 10,200 -1,260 Descending Boston Center
10:41AM 43.2931 -70.1894 32° Northeast 294 338 8,700 -1,260 Descending Boston Center
10:42AM 43.3692 -70.1408 25° Northeast 276 318 7,700 -900 Descending Boston Center
10:43AM 43.4519 -70.1033 18° North 264 304 6,800 -960 Descending Boston Center
10:44AM 43.5056 -70.0756 21° North 244 281 5,600 -1,200 Descending Boston Center
10:45AM 43.5783 -70.0700 North 200 230 4,200 -1,260 Descending Boston Center
10:46AM 43.6186 -70.0969 334° Northwest 162 186 2,900 -1,320 Descending Boston Center